createdAt,value
2017-05-29T00:00:27.398Z,0
2017-05-29T00:01:27.148Z,0
2017-05-29T00:02:27.508Z,0
2017-05-29T00:03:27.565Z,0
2017-05-29T00:04:27.620Z,0
2017-05-29T00:05:27.671Z,0
2017-05-29T00:06:27.727Z,0
2017-05-29T00:07:27.785Z,0
2017-05-29T00:08:27.845Z,0
2017-05-29T00:09:27.902Z,0
2017-05-29T00:10:27.953Z,0
2017-05-29T00:11:27.707Z,0
2017-05-29T00:12:28.060Z,0
2017-05-29T00:13:28.146Z,0
2017-05-29T00:14:28.173Z,0
2017-05-29T00:15:28.225Z,0
2017-05-29T00:16:28.281Z,0
2017-05-29T00:17:28.338Z,0
2017-05-29T00:18:28.396Z,0
2017-05-29T00:19:28.448Z,0
2017-05-29T00:20:28.509Z,0
2017-05-29T00:21:28.558Z,0
2017-05-29T00:22:28.617Z,0
2017-05-29T00:23:28.681Z,0
2017-05-29T00:24:28.430Z,0
2017-05-29T00:25:28.787Z,0
2017-05-29T00:26:28.536Z,0
2017-05-29T00:27:28.899Z,0
2017-05-29T00:28:28.967Z,0
2017-05-29T00:29:29.009Z,0
2017-05-29T00:30:28.760Z,0
2017-05-29T00:31:29.120Z,0
2017-05-29T00:32:29.173Z,0
2017-05-29T00:33:29.240Z,0
2017-05-29T00:34:29.285Z,0
2017-05-29T00:35:29.042Z,0
2017-05-29T00:36:29.395Z,0
2017-05-29T00:37:29.501Z,0
2017-05-29T00:38:29.508Z,0
2017-05-29T00:39:29.276Z,0
2017-05-29T00:40:29.616Z,0
2017-05-29T00:41:29.669Z,0
2017-05-29T00:42:29.425Z,0
2017-05-29T00:43:29.784Z,0
2017-05-29T00:44:29.536Z,0
2017-05-29T00:45:29.591Z,0
2017-05-29T00:46:29.649Z,0
2017-05-29T00:47:29.705Z,0
2017-05-29T00:48:30.060Z,0
2017-05-29T00:49:29.817Z,0
2017-05-29T00:50:30.176Z,0
2017-05-29T00:51:30.226Z,0
2017-05-29T00:52:30.285Z,0
2017-05-29T00:53:30.341Z,0
2017-05-29T00:54:30.399Z,0
2017-05-29T00:55:30.452Z,0
2017-05-29T00:56:30.507Z,0
2017-05-29T00:57:30.561Z,0
2017-05-29T00:58:30.614Z,0
2017-05-29T00:59:30.672Z,0
2017-05-29T01:00:30.425Z,0
2017-05-29T01:01:30.781Z,0
2017-05-29T01:02:30.842Z,0
2017-05-29T01:03:30.893Z,0
2017-05-29T01:04:30.951Z,0
2017-05-29T01:05:31.005Z,0
2017-05-29T01:06:31.058Z,0
2017-05-29T01:07:31.115Z,0
2017-05-29T01:08:31.170Z,0
2017-05-29T01:09:31.227Z,0
2017-05-29T01:10:31.282Z,0
2017-05-29T01:11:31.338Z,0
2017-05-29T01:12:31.395Z,0
2017-05-29T01:13:31.453Z,0
2017-05-29T01:14:31.203Z,0
2017-05-29T01:15:31.559Z,0
2017-05-29T01:16:31.614Z,0
2017-05-29T01:17:31.671Z,0
2017-05-29T01:18:31.729Z,0
2017-05-29T01:19:31.786Z,0
2017-05-29T01:20:31.537Z,0
2017-05-29T01:21:31.949Z,0
2017-05-29T01:22:31.949Z,0
2017-05-29T01:23:32.004Z,0
2017-05-29T01:24:32.065Z,0
2017-05-29T01:25:32.120Z,0
2017-05-29T01:26:32.170Z,0
2017-05-29T01:27:32.226Z,0
2017-05-29T01:28:32.280Z,0
2017-05-29T01:29:32.034Z,0
2017-05-29T01:30:32.389Z,0
2017-05-29T01:31:32.143Z,0
2017-05-29T01:32:32.502Z,0
2017-05-29T01:33:32.257Z,0
2017-05-29T01:34:32.616Z,0
2017-05-29T01:35:32.667Z,0
2017-05-29T01:36:32.726Z,0
2017-05-29T01:37:32.781Z,0
2017-05-29T01:38:32.841Z,0
2017-05-29T01:39:32.892Z,0
2017-05-29T01:40:32.954Z,0
2017-05-29T01:41:33.003Z,0
2017-05-29T01:42:33.059Z,0
2017-05-29T01:43:33.111Z,0
2017-05-29T01:44:33.167Z,0
2017-05-29T01:45:33.227Z,0
2017-05-29T01:46:33.276Z,0
2017-05-29T01:47:33.335Z,0
2017-05-29T01:48:33.390Z,0
2017-05-29T01:49:33.442Z,0
2017-05-29T01:50:33.503Z,0
2017-05-29T01:51:33.553Z,0
2017-05-29T01:52:33.611Z,0
2017-05-29T01:53:33.675Z,0
2017-05-29T01:54:33.724Z,0
2017-05-29T01:55:33.779Z,0
2017-05-29T01:56:33.830Z,0
2017-05-29T01:57:33.886Z,0
2017-05-29T01:58:33.945Z,0
2017-05-29T01:59:34.011Z,0
2017-05-29T02:00:34.056Z,0
2017-05-29T02:01:34.135Z,0
2017-05-29T02:02:34.171Z,0
2017-05-29T02:03:34.226Z,0
2017-05-29T02:04:34.280Z,0
2017-05-29T02:05:34.332Z,0
2017-05-29T02:06:34.382Z,0
2017-05-29T02:07:34.447Z,0
2017-05-29T02:08:34.499Z,0
2017-05-29T02:09:34.554Z,0
2017-05-29T02:10:34.306Z,0
2017-05-29T02:11:34.364Z,0
2017-05-29T02:12:34.720Z,0
2017-05-29T02:13:34.780Z,0
2017-05-29T02:14:34.832Z,0
2017-05-29T02:15:34.591Z,0
2017-05-29T02:16:34.945Z,0
2017-05-29T02:17:35.001Z,0
2017-05-29T02:18:35.053Z,0
2017-05-29T02:19:35.108Z,0
2017-05-29T02:20:35.163Z,0
2017-05-29T02:21:35.223Z,0
2017-05-29T02:22:35.277Z,0
2017-05-29T02:23:35.336Z,0
2017-05-29T02:24:35.088Z,0
2017-05-29T02:25:35.442Z,0
2017-05-29T02:26:35.500Z,0
2017-05-29T02:27:35.249Z,0
2017-05-29T02:28:35.607Z,0
2017-05-29T02:29:35.664Z,0
2017-05-29T02:30:35.720Z,0
2017-05-29T02:31:35.773Z,0
2017-05-29T02:32:35.826Z,0
2017-05-29T02:33:35.883Z,0
2017-05-29T02:34:35.640Z,0
2017-05-29T02:35:35.997Z,0
2017-05-29T02:36:36.059Z,0
2017-05-29T02:37:35.808Z,0
2017-05-29T02:38:36.168Z,0
2017-05-29T02:39:36.225Z,0
2017-05-29T02:40:36.275Z,0
2017-05-29T02:41:36.330Z,0
2017-05-29T02:42:36.388Z,0
2017-05-29T02:43:36.438Z,0
2017-05-29T02:44:36.493Z,0
2017-05-29T02:45:36.551Z,0
2017-05-29T02:46:36.612Z,0
2017-05-29T02:47:36.669Z,0
2017-05-29T02:48:36.719Z,0
2017-05-29T02:49:36.470Z,0
2017-05-29T02:50:36.827Z,0
2017-05-29T02:51:36.885Z,0
2017-05-29T02:52:36.936Z,0
2017-05-29T02:53:36.997Z,0
2017-05-29T02:54:37.049Z,0
2017-05-29T02:55:37.103Z,0
2017-05-29T02:56:37.159Z,0
2017-05-29T02:57:37.221Z,0
2017-05-29T02:58:37.274Z,0
2017-05-29T02:59:37.027Z,0
2017-05-29T03:00:37.379Z,0
2017-05-29T03:01:37.441Z,0
2017-05-29T03:02:37.497Z,4
2017-05-29T03:03:37.549Z,4
2017-05-29T03:04:37.602Z,4
2017-05-29T03:05:37.663Z,4
2017-05-29T03:06:37.713Z,4
2017-05-29T03:07:37.772Z,4
2017-05-29T03:08:37.831Z,4
2017-05-29T03:09:37.881Z,8
2017-05-29T03:10:37.936Z,8
2017-05-29T03:11:37.991Z,12
2017-05-29T03:12:37.749Z,12
2017-05-29T03:13:37.802Z,12
2017-05-29T03:14:37.552Z,16
2017-05-29T03:15:37.614Z,16
2017-05-29T03:16:37.968Z,20
2017-05-29T03:17:38.322Z,20
2017-05-29T03:18:37.774Z,24
2017-05-29T03:19:38.437Z,24
2017-05-29T03:20:38.486Z,28
2017-05-29T03:21:38.548Z,32
2017-05-29T03:22:38.601Z,36
2017-05-29T03:23:38.659Z,40
2017-05-29T03:24:38.714Z,48
2017-05-29T03:25:38.775Z,52
2017-05-29T03:26:38.827Z,56
2017-05-29T03:27:38.879Z,60
2017-05-29T03:28:38.935Z,68
2017-05-29T03:29:38.990Z,76
2017-05-29T03:30:39.055Z,84
2017-05-29T03:31:39.112Z,92
2017-05-29T03:32:39.153Z,96
2017-05-29T03:33:39.219Z,104
2017-05-29T03:34:39.268Z,108
2017-05-29T03:35:39.317Z,116
2017-05-29T03:36:39.377Z,124
2017-05-29T03:37:39.133Z,128
2017-05-29T03:38:39.489Z,136
2017-05-29T03:39:39.548Z,144
2017-05-29T03:40:39.602Z,148
2017-05-29T03:41:39.654Z,160
2017-05-29T03:42:39.712Z,168
2017-05-29T03:43:39.770Z,172
2017-05-29T03:44:39.823Z,180
2017-05-29T03:45:39.874Z,188
2017-05-29T03:46:39.930Z,196
2017-05-29T03:47:39.986Z,204
2017-05-29T03:48:40.044Z,208
2017-05-29T03:49:40.101Z,220
2017-05-29T03:50:39.851Z,228
2017-05-29T03:51:40.211Z,232
2017-05-29T03:52:40.271Z,240
2017-05-29T03:53:40.322Z,248
2017-05-29T03:54:40.381Z,256
2017-05-29T03:55:40.430Z,260
2017-05-29T03:56:40.484Z,272
2017-05-29T03:57:40.543Z,276
2017-05-29T03:58:40.599Z,284
2017-05-29T03:59:40.346Z,292
2017-05-29T04:00:40.711Z,300
2017-05-29T04:01:40.762Z,308
2017-05-29T04:02:40.817Z,312
2017-05-29T04:03:40.875Z,316
2017-05-29T04:04:40.931Z,328
2017-05-29T04:05:40.984Z,332
2017-05-29T04:06:41.042Z,340
2017-05-29T04:07:41.100Z,344
2017-05-29T04:08:41.152Z,352
2017-05-29T04:09:41.208Z,356
2017-05-29T04:10:41.262Z,364
2017-05-29T04:11:41.314Z,372
2017-05-29T04:12:41.373Z,376
2017-05-29T04:13:41.449Z,384
2017-05-29T04:14:41.484Z,392
2017-05-29T04:15:41.541Z,396
2017-05-29T04:16:41.589Z,404
2017-05-29T04:17:41.649Z,412
2017-05-29T04:18:41.714Z,412
2017-05-29T04:19:41.761Z,420
2017-05-29T04:20:41.813Z,428
2017-05-29T04:21:41.872Z,432
2017-05-29T04:22:41.925Z,436
2017-05-29T04:23:41.985Z,444
2017-05-29T04:24:42.042Z,452
2017-05-29T04:25:42.100Z,452
2017-05-29T04:26:41.849Z,460
2017-05-29T04:27:42.207Z,468
2017-05-29T04:28:41.957Z,472
2017-05-29T04:29:42.016Z,476
2017-05-29T04:30:42.373Z,484
2017-05-29T04:31:42.427Z,488
2017-05-29T04:32:42.178Z,492
2017-05-29T04:33:42.534Z,500
2017-05-29T04:34:42.589Z,508
2017-05-29T04:35:42.346Z,536
2017-05-29T04:36:42.402Z,560
2017-05-29T04:37:42.760Z,580
2017-05-29T04:38:42.815Z,588
2017-05-29T04:39:42.874Z,596
2017-05-29T04:40:42.626Z,604
2017-05-29T04:41:42.674Z,608
2017-05-29T04:42:43.035Z,612
2017-05-29T04:43:43.090Z,616
2017-05-29T04:44:43.147Z,624
2017-05-29T04:45:43.203Z,628
2017-05-29T04:46:43.263Z,628
2017-05-29T04:47:43.311Z,636
2017-05-29T04:48:43.367Z,644
2017-05-29T04:49:43.419Z,648
2017-05-29T04:50:43.475Z,652
2017-05-29T04:51:43.530Z,660
2017-05-29T04:52:43.588Z,664
2017-05-29T04:53:43.652Z,676
2017-05-29T04:54:43.699Z,676
2017-05-29T04:55:43.757Z,684
2017-05-29T04:56:43.812Z,688
2017-05-29T04:57:43.887Z,696
2017-05-29T04:58:43.922Z,700
2017-05-29T04:59:43.982Z,700
2017-05-29T05:00:44.032Z,704
2017-05-29T05:01:44.088Z,704
2017-05-29T05:02:43.842Z,708
2017-05-29T05:03:44.197Z,708
2017-05-29T05:04:44.259Z,712
2017-05-29T05:05:44.312Z,712
2017-05-29T05:06:44.372Z,716
2017-05-29T05:07:44.421Z,720
2017-05-29T05:08:44.482Z,720
2017-05-29T05:09:44.531Z,724
2017-05-29T05:10:44.593Z,728
2017-05-29T05:11:44.650Z,732
2017-05-29T05:12:44.704Z,740
2017-05-29T05:13:44.457Z,744
2017-05-29T05:14:44.812Z,752
2017-05-29T05:15:44.869Z,756
2017-05-29T05:16:44.921Z,760
2017-05-29T05:17:44.978Z,764
2017-05-29T05:18:44.732Z,768
2017-05-29T05:19:45.091Z,776
2017-05-29T05:20:45.142Z,784
2017-05-29T05:21:45.203Z,788
2017-05-29T05:22:45.258Z,792
2017-05-29T05:23:45.012Z,800
2017-05-29T05:24:45.369Z,808
2017-05-29T05:25:45.420Z,812
2017-05-29T05:26:45.480Z,820
2017-05-29T05:27:45.539Z,824
2017-05-29T05:28:45.589Z,828
2017-05-29T05:29:45.648Z,836
2017-05-29T05:30:45.697Z,840
2017-05-29T05:31:45.757Z,844
2017-05-29T05:32:45.816Z,852
2017-05-29T05:33:45.566Z,856
2017-05-29T05:34:45.923Z,856
2017-05-29T05:35:45.676Z,864
2017-05-29T05:36:46.033Z,872
2017-05-29T05:37:46.090Z,872
2017-05-29T05:38:46.148Z,876
2017-05-29T05:39:46.202Z,884
2017-05-29T05:40:46.254Z,888
2017-05-29T05:41:46.311Z,892
2017-05-29T05:42:45.761Z,896
2017-05-29T05:43:46.423Z,904
2017-05-29T05:44:46.479Z,912
2017-05-29T05:45:46.530Z,920
2017-05-29T05:46:46.591Z,924
2017-05-29T05:47:46.642Z,924
2017-05-29T05:48:46.697Z,928
2017-05-29T05:49:46.452Z,936
2017-05-29T05:50:46.508Z,940
2017-05-29T05:51:46.556Z,944
2017-05-29T05:52:46.917Z,948
2017-05-29T05:53:46.978Z,940
2017-05-29T05:54:47.027Z,952
2017-05-29T05:55:47.087Z,956
2017-05-29T05:56:47.138Z,960
2017-05-29T05:57:47.197Z,964
2017-05-29T05:58:47.253Z,968
2017-05-29T05:59:47.307Z,972
2017-05-29T06:00:47.362Z,976
2017-05-29T06:01:47.416Z,976
2017-05-29T06:02:47.467Z,980
2017-05-29T06:03:47.524Z,984
2017-05-29T06:04:47.583Z,988
2017-05-29T06:05:47.634Z,992
2017-05-29T06:06:47.697Z,996
2017-05-29T06:07:47.747Z,996
2017-05-29T06:08:47.804Z,1000
2017-05-29T06:09:47.856Z,1008
2017-05-29T06:10:47.913Z,1008
2017-05-29T06:11:47.963Z,1008
2017-05-29T06:12:48.023Z,1012
2017-05-29T06:13:48.079Z,1020
2017-05-29T06:14:48.135Z,1020
2017-05-29T06:15:48.254Z,1024
2017-05-29T06:16:48.247Z,1028
2017-05-29T06:17:47.998Z,1028
2017-05-29T06:18:48.356Z,1032
2017-05-29T06:19:48.411Z,1032
2017-05-29T06:20:48.467Z,1036
2017-05-29T06:21:48.517Z,1036
2017-05-29T06:22:48.575Z,1040
2017-05-29T06:23:48.632Z,1044
2017-05-29T06:24:48.683Z,1048
2017-05-29T06:25:48.742Z,1052
2017-05-29T06:26:48.796Z,1056
2017-05-29T06:27:48.852Z,1064
2017-05-29T06:28:48.909Z,1064
2017-05-29T06:29:48.676Z,1072
2017-05-29T06:30:49.020Z,1076
2017-05-29T06:31:48.772Z,1080
2017-05-29T06:32:49.128Z,1084
2017-05-29T06:33:49.192Z,1088
2017-05-29T06:34:49.242Z,1092
2017-05-29T06:35:49.296Z,1100
2017-05-29T06:36:49.356Z,1100
2017-05-29T06:37:49.405Z,1100
2017-05-29T06:38:49.462Z,1104
2017-05-29T06:39:49.517Z,1108
2017-05-29T06:40:49.577Z,1112
2017-05-29T06:41:49.630Z,1116
2017-05-29T06:42:49.687Z,1120
2017-05-29T06:43:49.743Z,1124
2017-05-29T06:44:49.796Z,1132
2017-05-29T06:45:49.851Z,1128
2017-05-29T06:46:49.604Z,1128
2017-05-29T06:47:49.661Z,1136
2017-05-29T06:48:50.017Z,1140
2017-05-29T06:49:50.077Z,1148
2017-05-29T06:50:50.128Z,1148
2017-05-29T06:51:50.189Z,1148
2017-05-29T06:52:50.254Z,1156
2017-05-29T06:53:50.292Z,1160
2017-05-29T06:54:50.357Z,1168
2017-05-29T06:55:50.106Z,1176
2017-05-29T06:56:50.164Z,1180
2017-05-29T06:57:50.521Z,1188
2017-05-29T06:58:50.575Z,1192
2017-05-29T06:59:50.631Z,1196
2017-05-29T07:00:50.688Z,1204
2017-05-29T07:01:50.741Z,1204
2017-05-29T07:02:50.799Z,1212
2017-05-29T07:03:50.853Z,1216
2017-05-29T07:04:50.903Z,1212
2017-05-29T07:05:50.964Z,1220
2017-05-29T07:06:51.019Z,1224
2017-05-29T07:07:51.076Z,1228
2017-05-29T07:08:51.132Z,1232
2017-05-29T07:09:51.185Z,1236
2017-05-29T07:10:51.243Z,1240
2017-05-29T07:11:51.297Z,1248
2017-05-29T07:12:51.053Z,1256
2017-05-29T07:13:51.409Z,1264
2017-05-29T07:14:51.472Z,1264
2017-05-29T07:15:51.519Z,1268
2017-05-29T07:16:51.576Z,1276
2017-05-29T07:17:51.635Z,1276
2017-05-29T07:18:51.714Z,1280
2017-05-29T07:19:51.742Z,1284
2017-05-29T07:20:51.797Z,1288
2017-05-29T07:21:51.859Z,1296
2017-05-29T07:22:51.911Z,1300
2017-05-29T07:23:51.970Z,1304
2017-05-29T07:24:52.023Z,1304
2017-05-29T07:25:51.777Z,1308
2017-05-29T07:26:52.140Z,1312
2017-05-29T07:27:52.190Z,1316
2017-05-29T07:28:52.252Z,1320
2017-05-29T07:29:52.306Z,1328
2017-05-29T07:30:52.360Z,1328
2017-05-29T07:31:52.112Z,1332
2017-05-29T07:32:52.471Z,1332
2017-05-29T07:33:52.528Z,1340
2017-05-29T07:34:52.581Z,1356
2017-05-29T07:35:52.639Z,1372
2017-05-29T07:36:52.390Z,1392
2017-05-29T07:37:52.754Z,1412
2017-05-29T07:38:52.807Z,1424
2017-05-29T07:39:52.864Z,1432
2017-05-29T07:40:52.916Z,1440
2017-05-29T07:41:52.971Z,1464
2017-05-29T07:42:53.088Z,1488
2017-05-29T07:43:53.088Z,1516
2017-05-29T07:44:53.137Z,1544
2017-05-29T07:45:53.200Z,1568
2017-05-29T07:46:53.258Z,1592
2017-05-29T07:47:53.312Z,1612
2017-05-29T07:48:53.365Z,1636
2017-05-29T07:49:53.119Z,1652
2017-05-29T07:50:53.476Z,1672
2017-05-29T07:51:53.537Z,1692
2017-05-29T07:52:53.588Z,1704
2017-05-29T07:53:53.644Z,1712
2017-05-29T07:54:53.701Z,1728
2017-05-29T07:55:53.757Z,1744
2017-05-29T07:56:53.814Z,1760
2017-05-29T07:57:53.870Z,1776
2017-05-29T07:58:53.987Z,1792
2017-05-29T07:59:53.981Z,1820
2017-05-29T08:00:54.045Z,1836
2017-05-29T08:01:54.093Z,1852
2017-05-29T08:02:53.907Z,1860
2017-05-29T08:03:54.207Z,1876
2017-05-29T08:04:54.261Z,1892
2017-05-29T08:05:54.323Z,1908
2017-05-29T08:06:54.376Z,1920
2017-05-29T08:07:54.130Z,1940
2017-05-29T08:08:54.495Z,1952
2017-05-29T08:09:54.546Z,1968
2017-05-29T08:10:54.596Z,1980
2017-05-29T08:11:54.654Z,1996
2017-05-29T08:12:54.714Z,2016
2017-05-29T08:13:54.771Z,2028
2017-05-29T08:14:54.823Z,2044
2017-05-29T08:15:54.891Z,2060
2017-05-29T08:16:54.948Z,2076
2017-05-29T08:17:54.703Z,2088
2017-05-29T08:18:55.055Z,2100
2017-05-29T08:19:54.806Z,2112
2017-05-29T08:20:55.161Z,2124
2017-05-29T08:21:54.913Z,2132
2017-05-29T08:22:54.973Z,2144
2017-05-29T08:23:55.028Z,2164
2017-05-29T08:24:55.089Z,2180
2017-05-29T08:25:55.440Z,2200
2017-05-29T08:26:55.197Z,2208
2017-05-29T08:27:55.556Z,2220
2017-05-29T08:28:55.611Z,2240
2017-05-29T08:29:55.675Z,2260
2017-05-29T08:30:55.726Z,2264
2017-05-29T08:31:55.782Z,2280
2017-05-29T08:32:55.843Z,2288
2017-05-29T08:33:55.952Z,2300
2017-05-29T08:34:55.954Z,2308
2017-05-29T08:35:55.711Z,2308
2017-05-29T08:36:56.088Z,2324
2017-05-29T08:37:56.127Z,2324
2017-05-29T08:38:56.179Z,2340
2017-05-29T08:39:56.235Z,2348
2017-05-29T08:40:56.292Z,2360
2017-05-29T08:41:56.345Z,2364
2017-05-29T08:42:56.413Z,2376
2017-05-29T08:43:56.157Z,2384
2017-05-29T08:44:56.215Z,2400
2017-05-29T08:45:56.267Z,2416
2017-05-29T08:46:56.632Z,2424
2017-05-29T08:47:56.689Z,2432
2017-05-29T08:48:56.747Z,2436
2017-05-29T08:49:56.803Z,2440
2017-05-29T08:50:56.856Z,2444
2017-05-29T08:51:56.912Z,2456
2017-05-29T08:52:56.966Z,2464
2017-05-29T08:53:57.026Z,2480
2017-05-29T08:54:57.085Z,2496
2017-05-29T08:55:56.835Z,2500
2017-05-29T08:56:56.897Z,2504
2017-05-29T08:57:57.254Z,2508
2017-05-29T08:58:57.309Z,2512
2017-05-29T08:59:57.367Z,2524
2017-05-29T09:00:57.426Z,2540
2017-05-29T09:01:57.481Z,2544
2017-05-29T09:02:57.535Z,2556
2017-05-29T09:03:57.290Z,2568
2017-05-29T09:04:57.352Z,2576
2017-05-29T09:05:57.401Z,2584
2017-05-29T09:06:57.766Z,2592
2017-05-29T09:07:57.824Z,2596
2017-05-29T09:08:57.876Z,2604
2017-05-29T09:09:57.937Z,2608
2017-05-29T09:10:57.989Z,2624
2017-05-29T09:11:58.050Z,2628
2017-05-29T09:12:58.110Z,2636
2017-05-29T09:13:58.167Z,2640
2017-05-29T09:14:58.226Z,2656
2017-05-29T09:15:57.975Z,2668
2017-05-29T09:16:58.335Z,2676
2017-05-29T09:17:58.393Z,2684
2017-05-29T09:18:58.452Z,2692
2017-05-29T09:19:58.519Z,2700
2017-05-29T09:20:58.563Z,2708
2017-05-29T09:21:58.626Z,2716
2017-05-29T09:22:58.380Z,2716
2017-05-29T09:23:58.741Z,2728
2017-05-29T09:24:58.497Z,2732
2017-05-29T09:25:58.855Z,2736
2017-05-29T09:26:58.910Z,2752
2017-05-29T09:27:58.970Z,2756
2017-05-29T09:28:59.026Z,2760
2017-05-29T09:29:59.085Z,2776
2017-05-29T09:30:59.142Z,2780
2017-05-29T09:31:59.204Z,2796
2017-05-29T09:32:58.656Z,2800
2017-05-29T09:33:59.016Z,2824
2017-05-29T09:34:58.785Z,2832
2017-05-29T09:35:59.432Z,2852
2017-05-29T09:36:59.191Z,2848
2017-05-29T09:37:59.546Z,2856
2017-05-29T09:38:59.605Z,2852
2017-05-29T09:39:59.662Z,2860
2017-05-29T09:40:59.718Z,2864
2017-05-29T09:41:59.471Z,2860
2017-05-29T09:42:59.836Z,2860
2017-05-29T09:44:00.201Z,2872
2017-05-29T09:44:59.947Z,2880
2017-05-29T09:45:59.706Z,2904
2017-05-29T09:46:59.759Z,2908
2017-05-29T09:48:00.124Z,2916
2017-05-29T09:48:59.880Z,2928
2017-05-29T09:49:59.635Z,2936
2017-05-29T09:51:00.295Z,2956
2017-05-29T09:52:00.350Z,2964
2017-05-29T09:53:00.408Z,2984
2017-05-29T09:54:00.463Z,3008
2017-05-29T09:55:00.525Z,3020
2017-05-29T09:56:00.584Z,3028
2017-05-29T09:57:00.642Z,3048
2017-05-29T09:58:00.706Z,3044
2017-05-29T09:59:00.762Z,3048
2017-05-29T10:00:00.817Z,3056
2017-05-29T10:01:00.572Z,3072
2017-05-29T10:02:00.928Z,3056
2017-05-29T10:03:00.993Z,3052
2017-05-29T10:04:01.044Z,3048
2017-05-29T10:05:01.108Z,3076
2017-05-29T10:06:01.164Z,3108
2017-05-29T10:07:01.222Z,3128
2017-05-29T10:08:01.278Z,3148
2017-05-29T10:09:01.342Z,3168
2017-05-29T10:10:01.395Z,3176
2017-05-29T10:11:01.450Z,3156
2017-05-29T10:12:01.512Z,3144
2017-05-29T10:13:01.568Z,3156
2017-05-29T10:14:01.662Z,3196
2017-05-29T10:15:01.688Z,3248
2017-05-29T10:16:01.459Z,3272
2017-05-29T10:17:01.499Z,3312
2017-05-29T10:18:01.555Z,3336
2017-05-29T10:19:01.917Z,3368
2017-05-29T10:20:01.973Z,3388
2017-05-29T10:21:01.728Z,3432
2017-05-29T10:22:02.093Z,3500
2017-05-29T10:23:01.847Z,3544
2017-05-29T10:24:02.208Z,3600
2017-05-29T10:25:01.961Z,3660
2017-05-29T10:26:02.324Z,3708
2017-05-29T10:27:02.385Z,3744
2017-05-29T10:28:02.441Z,3812
2017-05-29T10:29:02.550Z,3888
2017-05-29T10:30:02.557Z,3916
2017-05-29T10:31:02.320Z,3924
2017-05-29T10:32:02.370Z,3956
2017-05-29T10:33:02.737Z,3964
2017-05-29T10:34:02.788Z,3984
2017-05-29T10:35:02.849Z,4104
2017-05-29T10:36:02.604Z,4292
2017-05-29T10:37:02.965Z,4504
2017-05-29T10:38:03.024Z,4524
2017-05-29T10:39:03.078Z,4520
2017-05-29T10:40:03.143Z,4504
2017-05-29T10:41:03.200Z,4532
2017-05-29T10:42:02.955Z,4620
2017-05-29T10:43:03.315Z,4632
2017-05-29T10:44:03.369Z,4620
2017-05-29T10:45:03.125Z,4668
2017-05-29T10:46:03.490Z,4748
2017-05-29T10:47:03.251Z,4904
2017-05-29T10:48:03.303Z,4756
2017-05-29T10:49:03.358Z,4612
2017-05-29T10:50:03.422Z,4392
2017-05-29T10:51:03.781Z,4388
2017-05-29T10:52:03.840Z,4420
2017-05-29T10:53:03.896Z,4348
2017-05-29T10:54:03.962Z,4184
2017-05-29T10:55:03.710Z,3988
2017-05-29T10:56:04.072Z,4000
2017-05-29T10:57:03.829Z,4036
2017-05-29T10:58:04.195Z,4208
2017-05-29T10:59:04.246Z,4328
2017-05-29T11:00:04.308Z,4028
2017-05-29T11:01:04.377Z,4540
2017-05-29T11:02:04.127Z,4636
2017-05-29T11:03:04.486Z,4700
2017-05-29T11:04:04.539Z,5120
2017-05-29T11:05:04.602Z,5444
2017-05-29T11:06:04.660Z,5092
2017-05-29T11:07:04.718Z,4544
2017-05-29T11:08:04.784Z,4820
2017-05-29T11:09:04.536Z,5128
2017-05-29T11:10:04.896Z,5084
2017-05-29T11:11:04.652Z,4788
2017-05-29T11:12:05.011Z,3360
2017-05-29T11:13:05.079Z,2924
2017-05-29T11:14:05.134Z,3596
2017-05-29T11:15:04.890Z,3508
2017-05-29T11:16:05.250Z,3456
2017-05-29T11:17:05.306Z,3468
2017-05-29T11:18:05.362Z,3512
2017-05-29T11:19:05.422Z,3568
2017-05-29T11:20:05.485Z,3600
2017-05-29T11:21:05.547Z,3552
2017-05-29T11:22:05.300Z,3444
2017-05-29T11:23:05.660Z,3380
2017-05-29T11:24:05.414Z,3292
2017-05-29T11:25:05.475Z,3248
2017-05-29T11:26:05.533Z,3228
2017-05-29T11:27:05.591Z,3356
2017-05-29T11:28:05.347Z,3604
2017-05-29T11:29:05.709Z,3876
2017-05-29T11:30:05.464Z,4184
2017-05-29T11:31:06.183Z,4556
2017-05-29T11:32:06.188Z,4596
2017-05-29T11:33:05.943Z,4156
2017-05-29T11:34:06.303Z,3968
2017-05-29T11:35:06.364Z,3920
2017-05-29T11:36:06.117Z,3648
2017-05-29T11:37:06.482Z,3696
2017-05-29T11:38:06.237Z,3640
2017-05-29T11:39:06.605Z,3712
2017-05-29T11:40:06.655Z,3752
2017-05-29T11:41:06.763Z,3684
2017-05-29T11:42:06.775Z,3556
2017-05-29T11:43:06.230Z,3488
2017-05-29T11:44:06.593Z,3424
2017-05-29T11:45:06.952Z,3308
2017-05-29T11:46:07.014Z,3260
2017-05-29T11:47:07.072Z,3168
2017-05-29T11:48:07.127Z,2980
2017-05-29T11:49:07.186Z,2912
2017-05-29T11:50:06.944Z,2972
2017-05-29T11:51:07.309Z,3088
2017-05-29T11:52:07.364Z,3240
2017-05-29T11:53:07.422Z,3416
2017-05-29T11:54:07.477Z,3552
2017-05-29T11:55:07.540Z,3752
2017-05-29T11:56:07.297Z,3860
2017-05-29T11:57:07.718Z,4096
2017-05-29T11:58:07.718Z,4352
2017-05-29T11:59:07.776Z,4428
2017-05-29T12:00:07.845Z,4076
2017-05-29T12:01:07.894Z,3488
2017-05-29T12:02:07.953Z,3072
2017-05-29T12:03:07.706Z,2848
2017-05-29T12:04:08.069Z,2768
2017-05-29T12:05:08.135Z,2724
2017-05-29T12:06:08.260Z,2772
2017-05-29T12:07:08.309Z,2724
2017-05-29T12:08:08.305Z,2744
2017-05-29T12:09:08.365Z,2816
2017-05-29T12:10:08.422Z,2872
2017-05-29T12:11:08.483Z,2936
2017-05-29T12:12:08.238Z,3024
2017-05-29T12:13:08.602Z,3140
2017-05-29T12:14:08.663Z,3276
2017-05-29T12:15:08.415Z,3344
2017-05-29T12:16:08.473Z,3308
2017-05-29T12:17:08.534Z,3236
2017-05-29T12:18:08.893Z,3200
2017-05-29T12:19:08.952Z,3104
2017-05-29T12:20:09.011Z,2960
2017-05-29T12:21:09.069Z,2816
2017-05-29T12:22:08.830Z,2680
2017-05-29T12:23:09.195Z,2628
2017-05-29T12:24:09.252Z,2596
2017-05-29T12:25:09.006Z,2540
2017-05-29T12:26:09.365Z,2512
2017-05-29T12:27:09.423Z,2488
2017-05-29T12:28:09.482Z,2452
2017-05-29T12:29:09.549Z,2496
2017-05-29T12:30:09.299Z,2564
2017-05-29T12:31:09.664Z,2572
2017-05-29T12:32:09.418Z,2544
2017-05-29T12:33:09.475Z,2584
2017-05-29T12:34:09.833Z,2196
2017-05-29T12:35:09.896Z,2904
2017-05-29T12:36:09.954Z,3176
2017-05-29T12:37:09.706Z,3348
2017-05-29T12:38:09.771Z,3188
2017-05-29T12:39:10.131Z,3064
2017-05-29T12:40:10.190Z,2512
2017-05-29T12:41:10.249Z,2536
2017-05-29T12:42:10.315Z,2420
2017-05-29T12:43:10.368Z,2412
2017-05-29T12:44:09.822Z,2848
2017-05-29T12:45:10.490Z,2872
2017-05-29T12:46:10.545Z,2724
2017-05-29T12:47:10.602Z,2852
2017-05-29T12:48:10.356Z,2972
2017-05-29T12:49:10.722Z,2524
2017-05-29T12:50:10.784Z,2600
2017-05-29T12:51:10.532Z,2464
2017-05-29T12:52:10.891Z,2640
2017-05-29T12:53:10.952Z,2056
2017-05-29T12:54:10.711Z,1992
2017-05-29T12:55:11.078Z,1944
2017-05-29T12:56:11.127Z,1868
2017-05-29T12:57:11.191Z,1728
2017-05-29T12:58:11.247Z,1688
2017-05-29T12:59:11.303Z,1628
2017-05-29T13:00:11.363Z,1636
2017-05-29T13:01:11.426Z,1780
2017-05-29T13:02:11.484Z,1916
2017-05-29T13:03:11.539Z,1836
2017-05-29T13:04:11.602Z,1968
2017-05-29T13:05:11.657Z,1952
2017-05-29T13:06:11.770Z,1808
2017-05-29T13:07:11.777Z,1732
2017-05-29T13:08:11.833Z,1676
2017-05-29T13:09:11.592Z,1632
2017-05-29T13:10:11.946Z,1912
2017-05-29T13:11:11.709Z,1628
2017-05-29T13:12:12.066Z,1596
2017-05-29T13:13:11.825Z,1592
2017-05-29T13:14:11.882Z,1640
2017-05-29T13:15:11.942Z,1692
2017-05-29T13:16:12.000Z,1756
2017-05-29T13:17:12.359Z,1772
2017-05-29T13:18:12.419Z,1760
2017-05-29T13:19:11.874Z,1708
2017-05-29T13:20:12.234Z,1716
2017-05-29T13:21:12.593Z,1764
2017-05-29T13:22:12.050Z,1860
2017-05-29T13:23:12.712Z,1824
2017-05-29T13:24:12.474Z,1752
2017-05-29T13:25:12.833Z,1752
2017-05-29T13:26:12.588Z,1856
2017-05-29T13:27:12.945Z,2000
2017-05-29T13:28:13.004Z,2304
2017-05-29T13:29:13.063Z,2588
2017-05-29T13:30:13.120Z,2688
2017-05-29T13:31:13.179Z,2724
2017-05-29T13:32:13.236Z,2456
2017-05-29T13:33:13.293Z,2256
2017-05-29T13:34:13.108Z,2092
2017-05-29T13:35:13.413Z,1912
2017-05-29T13:36:13.472Z,1640
2017-05-29T13:37:13.529Z,1484
2017-05-29T13:38:12.986Z,1400
2017-05-29T13:39:13.345Z,1372
2017-05-29T13:40:13.401Z,1356
2017-05-29T13:41:13.759Z,1360
2017-05-29T13:42:13.823Z,1380
2017-05-29T13:43:13.890Z,1368
2017-05-29T13:44:13.942Z,1360
2017-05-29T13:45:13.996Z,1364